Time;durP1;ratioP1;P1;durP2;ratioP2;P2;SDS_P1;SDS_P2;PMS_P1;PMS_P2;Temp;Humidity;BMP_temperature;BMP_pressure;BME280_temperature;BME280_humidity;BME280_pressure;Samples;Min_cycle;Max_cycle;Signal;HPM_P1;HPM_P2
2022/09/24 00:01:27;;;;;;;0.05;0.05;;;;;;;16.63;70.11;101337.97;5066989;28;20079;-78
2022/09/24 00:03:55;;;;;;;0.10;0.10;;;;;;;16.61;70.15;101332.69;5068914;28;20093;-78
2022/09/24 00:06:22;;;;;;;0.10;0.10;;;;;;;16.64;70.01;101331.72;5069658;28;20021;-78
2022/09/24 00:08:50;;;;;;;0.10;0.10;;;;;;;16.62;70.02;101329.09;5071164;28;20077;-77
2022/09/24 00:11:20;;;;;;;0.10;0.10;;;;;;;16.63;70.21;101333.50;5066997;28;20123;-77
2022/09/24 00:13:47;;;;;;;0.10;0.10;;;;;;;16.63;70.33;101329.97;5070593;28;20032;-78
2022/09/24 00:16:15;;;;;;;0.10;0.10;;;;;;;16.62;70.52;101333.56;5073273;28;20483;-78
2022/09/24 00:18:42;;;;;;;0.20;0.20;;;;;;;16.65;70.08;101320.09;5067388;28;20051;-78
2022/09/24 00:21:15;;;;;;;0.10;0.10;;;;;;;16.72;70.40;101321.56;5069424;28;20507;-77
2022/09/24 00:23:42;;;;;;;0.22;0.22;;;;;;;16.73;70.39;101323.31;5069127;28;20438;-77
2022/09/24 00:28:58;;;;;;;0.73;0.73;;;;;;;16.74;70.15;101314.38;5069127;28;20507;-77
2022/09/24 00:31:25;;;;;;;0.20;0.20;;;;;;;16.72;70.36;101318.03;5069291;28;20480;-78
2022/09/24 00:33:52;;;;;;;0.45;0.40;;;;;;;16.71;70.18;101305.56;5066777;28;20128;-78
2022/09/24 00:36:20;;;;;;;0.10;0.10;;;;;;;16.75;69.99;101313.44;5067088;28;20480;-78
2022/09/24 00:38:51;;;;;;;0.10;0.10;;;;;;;16.75;70.58;101308.09;5069569;28;20346;-78
2022/09/24 00:41:19;;;;;;;0.17;0.17;;;;;;;16.76;70.62;101300.91;5062195;28;20040;-77
2022/09/24 00:43:47;;;;;;;0.10;0.10;;;;;;;16.74;70.56;101305.47;5069041;28;20029;-78
2022/09/24 00:49:01;;;;;;;0.10;0.10;;;;;;;16.77;70.05;101291.97;5100345;27;20408;-76
2022/09/24 00:51:30;;;;;;;0.03;0.03;;;;;;;16.72;70.02;101302.84;5078007;28;20024;-75
2022/09/24 00:54:03;;;;;;;0.22;0.22;;;;;;;16.74;70.25;101295.63;5079070;28;20067;-78
2022/09/24 00:56:32;;;;;;;0.40;0.40;;;;;;;16.66;70.45;101292.41;5075683;28;20025;-78
2022/09/24 00:59:01;;;;;;;0.10;0.10;;;;;;;16.66;70.21;101293.25;5078945;28;20036;-77
2022/09/24 01:01:29;;;;;;;0.15;0.15;;;;;;;16.66;69.68;101293.25;5089255;28;20065;-78
2022/09/24 01:03:56;;;;;;;0.10;0.10;;;;;;;16.71;70.00;101297.56;5087209;28;20108;-78
2022/09/24 01:06:24;;;;;;;0.30;0.30;;;;;;;16.67;70.49;101291.44;5081990;28;20475;-78
2022/09/24 01:08:51;;;;;;;0.20;0.20;;;;;;;16.65;70.40;101290.66;5082708;28;20020;-77
2022/09/24 01:11:44;;;;;;;0.22;0.22;;;;;;;16.78;70.20;101283.88;5078074;28;20038;-78
2022/09/24 01:14:31;;;;;;;0.52;0.52;;;;;;;16.76;70.18;101285.75;5079504;28;20112;-77
2022/09/24 01:22:50;;;;;;;0.10;0.10;;;;;;;16.76;70.25;101283.06;5092965;27;20401;-76
2022/09/24 01:25:46;;;;;;;0.10;0.10;;;;;;;16.72;70.00;101281.44;5075033;28;20508;-75
2022/09/24 01:31:30;;;;;;;0.10;0.10;;;;;;;16.70;70.16;101269.94;5094360;27;20397;-77
2022/09/24 01:34:00;;;;;;;0.30;0.30;;;;;;;16.69;70.29;101273.53;5089087;28;20384;-78
2022/09/24 01:36:28;;;;;;;1.15;1.15;;;;;;;16.63;70.63;101276.44;5086646;28;20119;-78
2022/09/24 01:38:57;;;;;;;0.40;0.40;;;;;;;16.62;70.30;101264.91;5089334;28;20204;-78
2022/09/24 01:41:23;;;;;;;2.13;0.35;;;;;;;16.60;70.48;101265.88;5089001;28;20498;-78
2022/09/24 01:43:50;;;;;;;0.47;0.47;;;;;;;16.62;69.93;101266.69;5089774;28;20032;-78
2022/09/24 01:46:19;;;;;;;0.10;0.10;;;;;;;16.59;70.13;101261.47;5088456;28;20499;-78
2022/09/24 01:48:45;;;;;;;0.40;0.40;;;;;;;16.53;70.30;101259.88;5088965;28;20115;-78
2022/09/24 01:54:06;;;;;;;0.20;0.20;;;;;;;16.60;70.34;101249.84;5090241;28;20385;-78
2022/09/24 01:56:45;;;;;;;3.65;1.92;;;;;;;16.59;70.58;101248.94;5089298;28;20028;-78
2022/09/24 01:59:35;;;;;;;0.40;0.40;;;;;;;16.60;70.52;101249.84;5089367;28;20103;-78
2022/09/24 02:02:29;;;;;;;0.65;0.65;;;;;;;16.68;69.86;101237.00;5075338;28;20433;-77
2022/09/24 02:05:04;;;;;;;0.20;0.20;;;;;;;16.53;70.70;101232.28;5080871;28;20510;-78
2022/09/24 02:07:38;;;;;;;0.63;0.63;;;;;;;16.52;70.11;101230.53;5085350;28;20040;-78
2022/09/24 02:10:12;;;;;;;0.40;0.40;;;;;;;16.48;70.10;101232.44;5080029;28;20035;-77
2022/09/24 02:12:42;;;;;;;1.45;0.68;;;;;;;16.48;70.47;101240.47;5085511;28;20046;-78
2022/09/24 02:15:16;;;;;;;0.20;0.20;;;;;;;16.44;70.54;101236.16;5075366;28;20536;-78
2022/09/24 02:17:47;;;;;;;0.20;0.20;;;;;;;16.40;70.66;101232.75;5087863;28;20491;-78
2022/09/24 02:20:18;;;;;;;0.20;0.20;;;;;;;16.42;70.40;101230.84;5085663;28;20028;-77
2022/09/24 02:22:46;;;;;;;0.20;0.20;;;;;;;16.47;70.20;101228.00;5086019;28;20031;-77
2022/09/24 02:25:17;;;;;;;0.75;0.68;;;;;;;16.48;70.11;101225.28;5077392;28;20032;-78
2022/09/24 02:27:43;;;;;;;0.55;0.55;;;;;;;16.49;70.10;101232.38;5077470;28;20025;-78
2022/09/24 02:30:09;;;;;;;0.10;0.10;;;;;;;16.49;70.25;101231.50;5076893;28;20058;-77
2022/09/24 02:32:39;;;;;;;0.85;0.85;;;;;;;16.49;70.29;101231.50;5083216;28;20050;-77
2022/09/24 02:35:09;;;;;;;12.50;1.92;;;;;;;16.49;70.31;101219.00;5082360;28;20032;-78
2022/09/24 02:37:38;;;;;;;0.43;0.43;;;;;;;16.54;70.22;101228.66;5086155;28;20467;-78
2022/09/24 02:40:07;;;;;;;0.47;0.47;;;;;;;16.55;69.87;101225.94;5085728;28;20024;-77
2022/09/24 02:42:34;;;;;;;0.88;0.88;;;;;;;16.53;69.90;101221.56;5080568;28;20028;-78
2022/09/24 02:45:01;;;;;;;0.08;0.08;;;;;;;16.54;70.21;101232.22;5079938;28;20055;-77
2022/09/24 02:47:28;;;;;;;0.63;0.63;;;;;;;16.55;70.28;101225.94;5078940;28;20037;-77
2022/09/24 02:49:54;;;;;;;0.55;0.55;;;;;;;16.56;70.08;101227.69;5082513;28;20145;-78
2022/09/24 02:52:21;;;;;;;0.10;0.10;;;;;;;16.56;70.06;101221.44;5086139;28;20035;-77
2022/09/24 02:54:49;;;;;;;0.50;0.50;;;;;;;16.57;69.97;101225.84;5085226;28;20032;-78
2022/09/24 02:57:17;;;;;;;0.50;0.50;;;;;;;16.53;70.11;101222.44;5083088;28;20036;-77
2022/09/24 02:59:44;;;;;;;0.15;0.15;;;;;;;16.55;70.02;101225.94;5081285;28;20035;-77
2022/09/24 03:02:10;;;;;;;0.17;0.17;;;;;;;16.55;69.94;101220.56;5083942;28;20102;-77
2022/09/24 03:04:36;;;;;;;0.00;0.00;;;;;;;16.55;69.97;101209.88;5069031;28;20058;-77
2022/09/24 03:07:03;;;;;;;0.20;0.20;;;;;;;16.52;69.96;101209.13;5068886;28;20064;-77
2022/09/24 03:09:29;;;;;;;0.43;0.43;;;;;;;16.48;70.01;101206.56;5069235;28;20036;-77
2022/09/24 03:11:59;;;;;;;0.20;0.20;;;;;;;16.47;69.97;101201.28;5063129;28;20108;-77
2022/09/24 03:14:26;;;;;;;0.10;0.10;;;;;;;16.47;69.92;101201.28;5067382;28;20124;-77
2022/09/24 03:16:52;;;;;;;0.60;0.60;;;;;;;16.44;70.04;101210.28;5065902;28;20039;-77
2022/09/24 03:19:18;;;;;;;0.10;0.10;;;;;;;16.43;70.01;101210.34;5064416;28;20040;-78
2022/09/24 03:21:44;;;;;;;0.20;0.20;;;;;;;16.45;70.06;101206.69;5073628;28;20100;-78
2022/09/24 03:24:10;;;;;;;0.20;0.20;;;;;;;16.47;69.87;101210.19;5061238;28;20040;-77
2022/09/24 03:26:36;;;;;;;0.38;0.38;;;;;;;16.49;70.10;101208.31;5071915;28;20032;-78
2022/09/24 03:29:03;;;;;;;0.10;0.10;;;;;;;16.50;69.90;101206.50;5072075;28;20414;-77
2022/09/24 03:31:29;;;;;;;0.20;0.20;;;;;;;16.53;69.84;101209.06;5067354;28;20029;-78
2022/09/24 03:33:55;;;;;;;0.10;0.10;;;;;;;16.56;70.01;101208.06;5064738;28;20033;-77
2022/09/24 03:36:24;;;;;;;0.10;0.10;;;;;;;16.57;70.12;101202.66;5072790;28;20033;-77
2022/09/24 03:38:55;;;;;;;0.10;0.10;;;;;;;16.61;70.23;101203.41;5069438;28;20032;-77
2022/09/24 03:41:21;;;;;;;0.10;0.10;;;;;;;16.61;70.20;101201.63;5070519;28;20028;-77
2022/09/24 03:43:48;;;;;;;0.10;0.10;;;;;;;16.64;70.09;101203.28;5073004;28;20488;-77
2022/09/24 03:46:16;;;;;;;0.10;0.10;;;;;;;16.65;70.05;101200.56;5065271;28;20032;-77
2022/09/24 03:48:42;;;;;;;0.50;0.50;;;;;;;16.63;70.41;101199.72;5067652;28;20078;-78
2022/09/24 03:51:12;;;;;;;1.15;0.90;;;;;;;16.65;70.29;101195.19;5066821;28;20067;-78
2022/09/24 03:53:38;;;;;;;2.53;0.73;;;;;;;16.64;70.07;101192.59;5061697;28;20032;-77
2022/09/24 03:56:06;;;;;;;0.10;0.10;;;;;;;16.66;69.86;101198.75;5071288;28;20032;-77
2022/09/24 03:58:37;;;;;;;0.47;0.47;;;;;;;16.69;69.92;101206.66;5068814;28;20040;-77
2022/09/24 04:01:05;;;;;;;0.10;0.10;;;;;;;16.70;69.94;101205.72;5063713;28;20441;-77
2022/09/24 04:03:31;;;;;;;0.10;0.10;;;;;;;16.72;69.92;101201.16;5063128;28;20327;-78
2022/09/24 04:05:57;;;;;;;0.10;0.10;;;;;;;16.70;70.21;101202.16;5066082;28;20036;-77
2022/09/24 04:08:24;;;;;;;0.15;0.15;;;;;;;16.70;70.22;101203.06;5071763;28;20043;-78
2022/09/24 04:10:51;;;;;;;0.55;0.55;;;;;;;16.72;70.15;101195.81;5065563;28;20032;-77
2022/09/24 04:13:18;;;;;;;0.30;0.30;;;;;;;16.74;70.14;101199.31;5062541;28;20059;-77
2022/09/24 04:15:44;;;;;;;0.10;0.10;;;;;;;16.76;70.13;101193.88;5069563;28;20385;-77
2022/09/24 04:18:11;;;;;;;0.40;0.40;;;;;;;16.78;70.16;101195.56;5062983;28;20036;-78
2022/09/24 04:20:38;;;;;;;0.20;0.20;;;;;;;16.79;70.30;101197.31;5063167;28;20028;-78
2022/09/24 04:23:04;;;;;;;0.10;0.10;;;;;;;16.80;70.06;101193.72;5069693;28;20107;-77
2022/09/24 04:25:31;;;;;;;0.20;0.20;;;;;;;16.81;70.00;101192.78;5061581;28;20558;-78
2022/09/24 04:28:00;;;;;;;0.20;0.20;;;;;;;16.83;70.06;101187.34;5067498;28;20067;-77
2022/09/24 04:30:28;;;;;;;0.20;0.20;;;;;;;16.81;70.09;101176.72;5070246;28;20119;-78
2022/09/24 04:32:55;;;;;;;0.10;0.10;;;;;;;16.82;69.99;101175.78;5069010;28;20028;-77
2022/09/24 04:35:22;;;;;;;0.10;0.10;;;;;;;16.84;69.82;101182.91;5072313;28;20094;-77
2022/09/24 04:37:49;;;;;;;0.00;0.00;;;;;;;16.86;69.95;101181.00;5062654;28;20504;-77
2022/09/24 04:40:16;;;;;;;0.10;0.10;;;;;;;16.88;69.77;101184.50;5069420;28;20041;-77
2022/09/24 04:42:45;;;;;;;0.10;0.10;;;;;;;16.88;69.68;101184.50;5071000;28;20145;-77
2022/09/24 04:45:13;;;;;;;0.08;0.08;;;;;;;16.87;69.66;101191.66;5071004;28;20028;-77
2022/09/24 04:47:39;;;;;;;0.15;0.15;;;;;;;16.87;69.56;101183.63;5067891;28;20107;-78
2022/09/24 04:50:08;;;;;;;0.10;0.10;;;;;;;16.85;69.72;101185.50;5072289;28;20028;-77
2022/09/24 04:52:34;;;;;;;0.25;0.25;;;;;;;16.86;69.68;101189.03;5065649;28;20020;-78
2022/09/24 04:55:00;;;;;;;0.20;0.20;;;;;;;16.85;69.96;101190.84;5072403;28;20052;-77
2022/09/24 04:57:34;;;;;;;0.68;0.68;;;;;;;16.87;70.05;101188.97;5067518;28;20098;-78
2022/09/24 05:00:02;;;;;;;1.45;0.65;;;;;;;16.82;70.04;101190.97;5064643;28;20488;-77
2022/09/24 05:02:28;;;;;;;0.10;0.10;;;;;;;16.80;69.67;101199.06;5065415;28;20027;-77
2022/09/24 05:04:54;;;;;;;0.13;0.13;;;;;;;16.78;69.72;101194.72;5066088;28;20038;-77
2022/09/24 05:07:20;;;;;;;0.00;0.00;;;;;;;16.78;69.72;101192.88;5066392;28;20072;-78
2022/09/24 05:09:46;;;;;;;0.22;0.22;;;;;;;16.76;69.88;101199.25;5067330;28;20032;-78
2022/09/24 05:12:13;;;;;;;0.15;0.15;;;;;;;16.75;69.96;101202.88;5064569;28;20037;-77
2022/09/24 05:14:39;;;;;;;1.00;1.00;;;;;;;16.73;69.73;101191.34;5062256;28;20052;-77
2022/09/24 05:17:05;;;;;;;0.00;0.00;;;;;;;16.74;69.64;101201.97;5058843;28;20488;-77
2022/09/24 05:19:31;;;;;;;0.10;0.10;;;;;;;16.76;69.92;101193.88;5064009;28;20031;-77
2022/09/24 05:21:57;;;;;;;0.10;0.10;;;;;;;16.76;70.07;101197.44;5056026;28;20039;-77
2022/09/24 05:24:23;;;;;;;0.50;0.50;;;;;;;16.76;69.95;101200.13;5066792;28;20040;-77
2022/09/24 05:27:22;;;;;;;0.20;0.20;;;;;;;16.76;69.88;101192.09;5062147;28;20086;-78
2022/09/24 05:29:38;;;;;;;0.10;0.10;;;;;;;16.78;70.23;101203.59;5059497;28;20113;-78
2022/09/24 05:32:08;;;;;;;0.43;0.43;;;;;;;16.79;70.32;101201.81;5052702;28;20160;-78
2022/09/24 05:34:34;;;;;;;4.72;1.00;;;;;;;16.77;70.41;101204.56;5052193;28;20116;-78
2022/09/24 05:37:01;;;;;;;0.13;0.13;;;;;;;16.77;70.24;101203.66;5052336;28;20090;-78
2022/09/24 05:39:27;;;;;;;0.00;0.00;;;;;;;16.78;70.05;101198.25;5067885;28;20032;-78
2022/09/24 05:41:54;;;;;;;0.20;0.20;;;;;;;16.78;70.33;101200.91;5063869;28;20033;-78
2022/09/24 05:44:21;;;;;;;0.85;0.85;;;;;;;16.79;70.03;101202.66;5064046;28;20032;-77
2022/09/24 05:46:48;;;;;;;0.15;0.15;;;;;;;16.78;70.25;101198.25;5051474;28;20040;-78
2022/09/24 05:49:14;;;;;;;1.00;0.90;;;;;;;16.77;70.40;101204.56;5051054;28;20020;-78
2022/09/24 05:51:40;;;;;;;0.75;0.52;;;;;;;16.75;70.64;101203.72;5056106;28;20411;-78
2022/09/24 05:54:06;;;;;;;0.10;0.10;;;;;;;16.73;70.68;101208.25;5055585;28;20028;-78
2022/09/24 05:56:32;;;;;;;0.55;0.55;;;;;;;16.71;70.65;101210.16;5055756;28;20036;-77
2022/09/24 05:58:59;;;;;;;0.10;0.10;;;;;;;16.70;70.71;101208.41;5059780;28;20060;-78
2022/09/24 06:01:28;;;;;;;0.10;0.10;;;;;;;16.71;70.63;101211.94;5053153;28;20033;-78
2022/09/24 06:03:55;;;;;;;0.35;0.35;;;;;;;16.72;70.65;101216.34;5051934;28;20028;-78
2022/09/24 06:06:22;;;;;;;0.25;0.20;;;;;;;16.72;70.55;101205.66;5052943;28;20111;-78
2022/09/24 06:08:48;;;;;;;0.13;0.13;;;;;;;16.74;70.29;101215.38;5053374;28;20435;-79
2022/09/24 06:11:14;;;;;;;0.10;0.10;;;;;;;16.75;70.58;101211.75;5058604;28;20029;-78
2022/09/24 06:13:40;;;;;;;0.20;0.20;;;;;;;16.77;70.38;101212.56;5063120;28;20162;-78
2022/09/24 06:16:08;;;;;;;0.68;0.68;;;;;;;16.80;70.65;101215.13;5064579;28;20377;-78
2022/09/24 06:18:37;;;;;;;0.10;0.10;;;;;;;16.80;70.62;101220.47;5066079;28;20518;-78
2022/09/24 06:21:06;;;;;;;1.55;0.47;;;;;;;16.83;70.64;101224.81;5067008;28;20525;-79
2022/09/24 06:23:34;;;;;;;0.75;0.75;;;;;;;16.85;70.90;101233.69;5059481;28;20178;-79
2022/09/24 06:26:00;;;;;;;0.10;0.10;;;;;;;16.84;71.00;101220.38;5062679;28;20649;-78
2022/09/24 06:28:26;;;;;;;0.47;0.47;;;;;;;16.82;70.72;101223.97;5067252;28;20060;-78
2022/09/24 06:30:52;;;;;;;0.60;0.50;;;;;;;16.80;70.97;101228.50;5060766;28;20363;-78
2022/09/24 06:33:19;;;;;;;0.10;0.10;;;;;;;16.79;70.78;101229.41;5056359;28;20025;-78
2022/09/24 06:35:46;;;;;;;0.10;0.10;;;;;;;16.81;70.72;101226.72;5057380;28;20098;-78
2022/09/24 06:38:14;;;;;;;0.70;0.57;;;;;;;16.84;70.74;101221.22;5056890;28;20032;-78
2022/09/24 06:40:42;;;;;;;0.08;0.08;;;;;;;16.86;70.60;101229.19;5059960;28;20403;-78
2022/09/24 06:43:09;;;;;;;0.10;0.10;;;;;;;16.85;71.16;101232.78;5060249;28;20025;-78
2022/09/24 06:45:36;;;;;;;0.30;0.30;;;;;;;16.85;70.81;101233.69;5059345;28;20171;-78
2022/09/24 06:48:04;;;;;;;0.10;0.10;;;;;;;16.84;71.17;101236.41;5059788;28;20033;-78
2022/09/24 06:50:33;;;;;;;0.10;0.10;;;;;;;16.82;70.78;101240.03;5063647;28;20029;-79
2022/09/24 06:52:59;;;;;;;0.10;0.10;;;;;;;16.78;71.23;101238.38;5064960;28;20025;-78
2022/09/24 06:55:25;;;;;;;0.10;0.10;;;;;;;16.79;71.24;101240.13;5065038;28;20096;-78
2022/09/24 06:58:05;;;;;;;0.10;0.10;;;;;;;16.87;70.99;101245.16;5061276;28;20036;-78
2022/09/24 07:00:32;;;;;;;0.10;0.10;;;;;;;16.82;71.59;101245.38;5070324;28;20025;-78
2022/09/24 07:02:58;;;;;;;0.30;0.30;;;;;;;16.82;71.11;101252.50;5057689;28;20029;-79
2022/09/24 07:05:24;;;;;;;0.15;0.15;;;;;;;16.84;71.48;101249.81;5064993;28;20036;-78
2022/09/24 07:07:50;;;;;;;0.10;0.10;;;;;;;16.85;71.42;101254.19;5069863;28;20048;-78
2022/09/24 07:10:17;;;;;;;0.10;0.10;;;;;;;16.86;71.64;101250.59;5065894;28;20107;-78
2022/09/24 07:12:43;;;;;;;0.10;0.10;;;;;;;16.87;72.00;101263.03;5077143;28;20086;-79
2022/09/24 07:15:10;;;;;;;0.10;0.10;;;;;;;16.88;71.94;101262.97;5067374;28;20419;-79
2022/09/24 07:17:36;;;;;;;0.10;0.10;;;;;;;16.86;71.73;101266.66;5071262;28;20400;-78
2022/09/24 07:20:03;;;;;;;0.10;0.10;;;;;;;16.86;71.30;101269.31;5072851;28;20028;-78
2022/09/24 07:22:30;;;;;;;0.30;0.30;;;;;;;16.90;71.32;101268.28;5071665;28;20027;-78
2022/09/24 07:24:56;;;;;;;0.10;0.10;;;;;;;16.90;71.37;101273.66;5073141;28;20539;-78
2022/09/24 07:27:22;;;;;;;0.08;0.08;;;;;;;16.88;71.61;101280.84;5069520;28;20027;-78
2022/09/24 07:29:48;;;;;;;0.73;0.73;;;;;;;16.85;71.57;101275.59;5077407;28;20028;-77
2022/09/24 07:32:16;;;;;;;0.10;0.10;;;;;;;16.85;71.43;101278.28;5073072;28;20024;-79
2022/09/24 07:34:42;;;;;;;0.32;0.30;;;;;;;16.82;71.52;101281.94;5062125;28;20086;-79
2022/09/24 07:37:08;;;;;;;0.63;0.63;;;;;;;16.81;71.51;101283.78;5067463;28;20403;-78
2022/09/24 07:39:34;;;;;;;0.10;0.10;;;;;;;16.80;71.86;101278.47;5059246;28;20105;-78
2022/09/24 07:42:01;;;;;;;5.13;0.47;;;;;;;16.77;71.74;101294.63;5054211;28;20032;-78
2022/09/24 07:44:28;;;;;;;0.10;0.10;;;;;;;16.77;71.83;101292.84;5054549;28;20028;-78
2022/09/24 07:46:54;;;;;;;0.10;0.10;;;;;;;16.76;71.78;101295.56;5055378;28;20123;-78
2022/09/24 07:49:23;;;;;;;0.10;0.10;;;;;;;16.77;71.49;101300.88;5060039;28;20029;-78
2022/09/24 07:51:49;;;;;;;0.08;0.08;;;;;;;16.77;71.27;101306.22;5059461;28;20041;-79
2022/09/24 07:54:15;;;;;;;0.10;0.10;;;;;;;16.79;71.20;101303.50;5057757;28;20049;-78
2022/09/24 07:56:42;;;;;;;0.52;0.52;;;;;;;16.79;71.39;101304.34;5061775;28;20063;-79
2022/09/24 07:59:10;;;;;;;0.10;0.10;;;;;;;16.79;71.60;101309.69;5058458;28;20463;-78
2022/09/24 08:01:36;;;;;;;0.10;0.10;;;;;;;16.79;71.33;101304.34;5065628;28;20052;-79
2022/09/24 08:04:03;;;;;;;0.63;0.63;;;;;;;16.79;71.56;101311.53;5062854;28;20036;-79
2022/09/24 08:06:32;;;;;;;0.20;0.20;;;;;;;16.82;71.53;101311.38;5063366;28;20020;-79
2022/09/24 08:08:58;;;;;;;1.00;1.00;;;;;;;16.80;71.54;101322.16;5057131;28;20029;-78
2022/09/24 08:11:24;;;;;;;0.10;0.10;;;;;;;16.82;71.56;101309.59;5055790;28;20546;-78
2022/09/24 08:13:50;;;;;;;0.30;0.30;;;;;;;16.78;71.82;101318.66;5056912;28;20090;-78
2022/09/24 08:16:20;;;;;;;0.50;0.50;;;;;;;16.83;71.46;101323.84;5056382;28;20040;-77
2022/09/24 08:18:46;;;;;;;0.00;0.00;;;;;;;16.85;71.23;101322.00;5056526;28;20040;-78
2022/09/24 08:21:14;;;;;;;0.10;0.10;;;;;;;16.88;71.68;101321.00;5055321;28;20025;-79
2022/09/24 08:23:41;;;;;;;0.00;0.00;;;;;;;16.85;71.77;101316.63;5054056;28;20033;-78
2022/09/24 08:26:09;;;;;;;0.03;0.03;;;;;;;16.89;71.65;101322.75;5055281;28;20488;-79
2022/09/24 08:28:35;;;;;;;0.10;0.10;;;;;;;16.84;71.87;101330.09;5056556;28;20029;-78
2022/09/24 08:31:07;;;;;;;0.10;0.10;;;;;;;16.86;71.51;101336.22;5057649;28;20124;-78
2022/09/24 08:33:34;;;;;;;0.10;0.10;;;;;;;16.88;71.78;101337.06;5057947;28;20025;-79
2022/09/24 08:36:02;;;;;;;0.30;0.30;;;;;;;16.86;71.22;101330.88;5056950;28;20130;-79
2022/09/24 08:38:28;;;;;;;0.10;0.10;;;;;;;16.87;71.22;101332.63;5053627;28;20029;-79
2022/09/24 08:41:03;;;;;;;0.68;0.28;;;;;;;16.89;71.57;101334.31;5053577;28;20108;-78
2022/09/24 08:49:18;;;;;;;0.10;0.10;;;;;;;16.81;71.06;101345.31;5059254;28;20435;-79
2022/09/24 08:52:09;;;;;;;0.20;0.20;;;;;;;16.86;70.85;101346.94;5048317;28;20033;-80
2022/09/24 08:54:37;;;;;;;0.10;0.10;;;;;;;16.73;70.89;101352.75;5047741;28;20037;-80
2022/09/24 08:57:11;;;;;;;0.10;0.10;;;;;;;16.74;70.80;101349.16;5040793;28;20084;-80
2022/09/24 08:59:42;;;;;;;0.10;0.10;;;;;;;16.64;71.13;101348.63;5033913;28;20036;-80
2022/09/24 09:07:33;;;;;;;0.10;0.10;;;;;;;16.61;71.22;101361.22;5143266;27;20383;-78
2022/09/24 09:10:09;;;;;;;0.10;0.10;;;;;;;16.62;71.33;101366.56;5136493;27;20395;-79
2022/09/24 09:12:41;;;;;;;1.00;1.00;;;;;;;16.58;71.15;101354.19;5132793;27;20023;-79
2022/09/24 09:15:16;;;;;;;0.10;0.10;;;;;;;16.52;71.55;101369.63;5132380;27;20116;-79
2022/09/24 09:17:50;;;;;;;0.10;0.10;;;;;;;16.50;71.66;101367.88;5156497;27;20019;-79
2022/09/24 09:20:22;;;;;;;0.10;0.10;;;;;;;16.52;71.55;101370.47;5149096;27;20088;-79
2022/09/24 09:22:52;;;;;;;0.10;0.10;;;;;;;16.46;71.59;101371.59;5145277;27;20027;-79
2022/09/24 09:25:23;;;;;;;0.10;0.10;;;;;;;16.50;71.47;101375.88;5133522;27;20031;-79
2022/09/24 09:27:55;;;;;;;0.10;0.10;;;;;;;16.52;71.76;101381.16;5143518;27;20046;-79
2022/09/24 09:30:21;;;;;;;0.10;0.10;;;;;;;16.48;71.94;101376.88;5142740;27;20023;-79
2022/09/24 09:33:03;;;;;;;0.03;0.03;;;;;;;16.61;71.22;101374.59;5148577;27;20217;-78
2022/09/24 09:35:41;;;;;;;0.10;0.10;;;;;;;16.62;71.85;101382.59;5142400;27;20023;-79
2022/09/24 09:43:40;;;;;;;0.10;0.10;;;;;;;16.68;71.60;101384.16;5067835;28;20893;-79
2022/09/24 09:46:30;;;;;;;0.10;0.10;;;;;;;16.81;71.24;101382.78;5051011;28;20059;-79
2022/09/24 09:49:01;;;;;;;0.10;0.10;;;;;;;16.78;71.75;101388.22;5050307;28;20028;-79
2022/09/24 09:51:36;;;;;;;0.10;0.10;;;;;;;16.80;71.50;101391.72;5061709;28;20460;-79
2022/09/24 09:54:03;;;;;;;0.10;0.10;;;;;;;16.79;71.78;101389.13;5055906;28;20068;-79
2022/09/24 09:56:33;;;;;;;0.10;0.10;;;;;;;16.82;71.64;101392.56;5059255;28;20036;-79
2022/09/24 10:01:46;;;;;;;0.03;0.03;;;;;;;16.85;71.71;101398.72;5098316;27;20417;-80
2022/09/24 10:04:38;;;;;;;0.10;0.10;;;;;;;16.91;71.92;101391.38;5099787;28;20031;-79
2022/09/24 10:07:09;;;;;;;0.10;0.10;;;;;;;16.87;71.65;101394.19;5095768;28;20032;-79
2022/09/24 10:09:37;;;;;;;0.10;0.10;;;;;;;16.86;71.69;101397.78;5093876;28;20587;-81
2022/09/24 10:12:21;;;;;;;0.10;0.10;;;;;;;16.97;71.46;101395.59;5098842;28;20499;-82
2022/09/24 10:15:16;;;;;;;0.05;0.05;;;;;;;16.96;71.95;101397.41;5097857;28;20115;-81
2022/09/24 10:17:45;;;;;;;0.10;0.10;;;;;;;16.92;71.51;101401.16;5100213;28;20028;-79
2022/09/24 10:22:55;;;;;;;0.10;0.10;;;;;;;16.91;71.88;101399.41;5089003;27;1198360;-79
2022/09/24 10:25:25;;;;;;;0.10;0.10;;;;;;;16.88;71.69;101403.97;5125715;28;20514;-78
2022/09/24 10:27:53;;;;;;;0.10;0.10;;;;;;;16.86;71.27;101396.00;5120292;27;20023;-77
2022/09/24 10:30:35;;;;;;;0.10;0.10;;;;;;;16.92;71.71;101405.63;5117471;28;20049;-79
2022/09/24 10:33:05;;;;;;;0.10;0.10;;;;;;;16.88;71.59;101407.50;5127173;27;20039;-79
2022/09/24 10:35:34;;;;;;;0.10;0.10;;;;;;;16.87;71.71;101402.22;5123187;27;20042;-79
2022/09/24 10:38:14;;;;;;;0.28;0.28;;;;;;;16.85;71.50;101409.41;5121769;27;20043;-79
2022/09/24 10:40:41;;;;;;;0.10;0.10;;;;;;;16.84;71.39;101399.66;5126104;28;20035;-79
2022/09/24 10:43:16;;;;;;;0.20;0.20;;;;;;;16.88;71.30;101417.34;5126732;28;20023;-78
2022/09/24 10:46:16;;;;;;;0.20;0.20;;;;;;;16.92;71.38;101410.97;5128328;27;20032;-78
2022/09/24 10:56:44;;;;;;;0.10;0.10;;;;;;;16.76;71.17;101422.22;5097372;27;20445;-79
2022/09/24 10:59:50;;;;;;;0.10;0.10;;;;;;;16.76;71.23;101426.69;5084657;28;20134;-79
2022/09/24 11:02:52;;;;;;;0.10;0.10;;;;;;;16.73;71.12;101426.81;5075597;28;20060;-79
2022/09/24 11:05:22;;;;;;;0.05;0.05;;;;;;;16.67;71.22;101422.53;5083780;28;20483;-79
2022/09/24 11:17:02;;;;;;;0.63;0.63;;;;;;;16.84;71.60;101434.47;5100520;27;20407;-79
2022/09/24 11:22:14;;;;;;;0.30;0.30;;;;;;;16.87;71.95;101439.69;5086936;27;20398;-79
2022/09/24 11:27:56;;;;;;;0.10;0.10;;;;;;;17.08;71.87;101435.34;5051876;28;20411;-82
2022/09/24 11:30:30;;;;;;;0.10;0.10;;;;;;;17.13;72.17;101428.91;5053557;28;20128;-82
2022/09/24 11:35:59;;;;;;;0.08;0.08;;;;;;;17.39;71.57;101443.09;5110812;27;20430;-79
2022/09/24 11:44:20;;;;;;;0.10;0.10;;;;;;;17.52;71.17;101442.59;5094120;27;20783;-78
2022/09/24 11:50:18;;;;;;;0.35;0.35;;;;;;;17.55;70.88;101429.09;5067483;28;20397;-76
2022/09/24 11:52:55;;;;;;;0.10;0.10;;;;;;;17.50;70.36;101441.81;5072036;28;20040;-78
2022/09/24 11:55:33;;;;;;;0.00;0.00;;;;;;;17.50;70.27;101444.50;5071761;28;20025;-78
2022/09/24 11:58:16;;;;;;;0.10;0.10;;;;;;;17.54;70.62;101446.97;5058924;28;20083;-78
2022/09/24 12:00:50;;;;;;;0.10;0.10;;;;;;;17.53;70.33;101449.72;5064663;28;20032;-78
2022/09/24 12:03:23;;;;;;;0.17;0.17;;;;;;;17.61;70.62;101452.97;5068597;28;20047;-78
2022/09/24 12:05:54;;;;;;;;;;;;;;;17.78;70.19;101445.13;5071767;28;20029;-78
2022/09/24 12:16:23;;;;;;;0.10;0.10;;;;;;;17.65;70.35;101443.88;5056728;28;20413;-77
2022/09/24 12:18:58;;;;;;;0.10;0.10;;;;;;;17.70;70.26;101447.22;5040411;28;20104;-77
2022/09/24 12:21:44;;;;;;;0.10;0.10;;;;;;;17.70;70.28;101441.88;5049123;28;20052;-78
2022/09/24 12:24:48;;;;;;;0.10;0.10;;;;;;;17.83;70.15;101441.38;5045871;28;20043;-78
2022/09/24 12:27:25;;;;;;;0.10;0.10;;;;;;;17.82;70.54;101440.50;5044695;28;20520;-78
2022/09/24 12:33:15;;;;;;;0.10;0.10;;;;;;;17.98;69.86;101446.16;5105738;27;1203762;-77
2022/09/24 12:38:28;;;;;;;0.10;0.10;;;;;;;17.97;69.72;101457.81;5109551;27;20754;-77
2022/09/24 12:43:44;;;;;;;0.10;0.10;;;;;;;17.97;69.32;101452.44;5110822;27;20682;-80
2022/09/24 12:46:23;;;;;;;0.10;0.10;;;;;;;17.90;68.89;101448.22;5102485;28;20437;-80
2022/09/24 12:48:51;;;;;;;0.10;0.10;;;;;;;17.80;68.79;101453.09;5093058;28;20561;-79
2022/09/24 12:51:21;;;;;;;0.10;0.10;;;;;;;17.77;69.38;101451.41;5101322;28;20027;-80
2022/09/24 12:53:58;;;;;;;0.10;0.10;;;;;;;17.82;69.09;101450.34;5112223;28;20544;-79
2022/09/24 12:56:28;;;;;;;0.10;0.10;;;;;;;17.78;68.93;101450.47;5111921;28;20119;-79
2022/09/24 12:58:55;;;;;;;0.10;0.10;;;;;;;17.81;69.30;101453.94;5104752;28;20058;-79
2022/09/24 13:06:58;;;;;;;0.08;0.08;;;;;;;17.98;69.29;101445.25;5090632;27;20396;-77
2022/09/24 13:09:40;;;;;;;0.15;0.15;;;;;;;18.00;68.92;101446.94;5065888;28;20567;-79
2022/09/24 13:15:01;;;;;;;0.10;0.10;;;;;;;17.97;68.26;101452.44;5099214;27;20414;-76
2022/09/24 13:17:31;;;;;;;0.10;0.10;;;;;;;17.90;68.23;101442.88;5083583;28;20111;-77